createdAt,value
2022-11-13T00:01:25.729Z,8.40
2022-11-13T00:04:10.875Z,7.60
2022-11-13T00:06:59.157Z,10.18
2022-11-13T00:09:46.656Z,8.23
2022-11-13T00:12:31.990Z,8.73
2022-11-13T00:15:17.337Z,6.43
2022-11-13T00:18:03.244Z,7.30
2022-11-13T00:20:48.547Z,9.07
2022-11-13T00:23:35.767Z,7.40
2022-11-13T00:26:26.556Z,8.00
2022-11-13T00:29:11.850Z,6.40
2022-11-13T00:31:57.254Z,7.28
2022-11-13T00:34:47.740Z,8.95
2022-11-13T00:37:33.272Z,8.02
2022-11-13T00:40:18.752Z,7.35
2022-11-13T00:43:03.941Z,9.63
2022-11-13T00:45:49.234Z,8.63
2022-11-13T00:48:35.557Z,11.77
2022-11-13T00:51:20.947Z,9.32
2022-11-13T00:54:06.333Z,9.13
2022-11-13T00:56:51.569Z,8.73
2022-11-13T00:59:36.925Z,9.32
2022-11-13T01:02:22.318Z,9.25
2022-11-13T01:05:07.608Z,11.23
2022-11-13T01:07:53.022Z,10.10
2022-11-13T01:10:41.457Z,12.02
2022-11-13T01:13:26.757Z,11.77
2022-11-13T01:16:13.965Z,13.57
2022-11-13T01:18:59.173Z,27.05
2022-11-13T01:21:44.346Z,11.52
2022-11-13T01:24:29.529Z,8.70
2022-11-13T01:27:16.009Z,8.75
2022-11-13T01:30:01.338Z,11.18
2022-11-13T01:32:46.616Z,12.88
2022-11-13T01:35:31.830Z,12.90
2022-11-13T01:38:16.948Z,9.55
2022-11-13T01:41:02.362Z,11.50
2022-11-13T01:43:47.754Z,13.45
2022-11-13T01:46:40.526Z,11.93
2022-11-13T01:49:30.812Z,13.77
2022-11-13T01:52:21.060Z,11.07
2022-11-13T01:55:13.596Z,14.02
2022-11-13T01:58:00.211Z,10.63
2022-11-13T02:00:46.328Z,12.73
2022-11-13T02:03:31.290Z,9.82
2022-11-13T02:06:16.819Z,12.93
2022-11-13T02:09:02.155Z,11.75
2022-11-13T02:11:47.539Z,14.60
2022-11-13T02:14:33.579Z,15.45
2022-11-13T02:17:23.304Z,10.20
2022-11-13T02:20:09.460Z,15.43
2022-11-13T02:23:09.224Z,10.05
2022-11-13T02:25:54.828Z,9.00
2022-11-13T02:28:42.958Z,16.15
2022-11-13T02:31:28.300Z,9.45
2022-11-13T02:34:13.576Z,11.70
2022-11-13T02:36:58.907Z,10.57
2022-11-13T02:39:44.090Z,12.23
2022-11-13T02:42:29.356Z,13.38
2022-11-13T02:45:14.391Z,12.98
2022-11-13T02:48:00.975Z,15.23
2022-11-13T02:50:46.440Z,9.52
2022-11-13T02:53:31.774Z,13.50
2022-11-13T02:56:16.920Z,9.25
2022-11-13T02:59:02.114Z,8.63
2022-11-13T03:01:48.106Z,10.02
2022-11-13T03:04:50.497Z,13.48
2022-11-13T03:07:38.719Z,7.20
2022-11-13T03:10:23.989Z,7.93
2022-11-13T03:13:09.354Z,10.10
2022-11-13T03:15:54.487Z,10.52
2022-11-13T03:18:40.345Z,7.07
2022-11-13T03:21:25.708Z,9.80
2022-11-13T03:24:10.960Z,10.40
2022-11-13T03:26:56.345Z,10.75
2022-11-13T03:29:41.731Z,11.10
2022-11-13T03:32:26.897Z,10.23
2022-11-13T03:35:12.212Z,8.55
2022-11-13T03:37:57.517Z,11.07
2022-11-13T03:40:43.339Z,13.35
2022-11-13T03:43:28.516Z,14.35
2022-11-13T03:46:13.805Z,10.40
2022-11-13T03:48:59.007Z,10.98
2022-11-13T03:51:44.304Z,11.70
2022-11-13T03:54:29.462Z,9.73
2022-11-13T03:57:15.294Z,12.30
2022-11-13T04:00:00.668Z,12.82
2022-11-13T04:02:45.795Z,11.48
2022-11-13T04:05:31.338Z,12.40
2022-11-13T04:08:17.618Z,12.35
2022-11-13T04:11:09.990Z,14.32
2022-11-13T04:13:55.070Z,14.88
2022-11-13T04:16:40.539Z,16.20
2022-11-13T04:19:25.892Z,13.57
2022-11-13T04:22:11.139Z,15.50
2022-11-13T04:24:56.412Z,13.73
2022-11-13T04:27:41.728Z,13.85
2022-11-13T04:30:26.823Z,13.20
2022-11-13T04:33:12.096Z,13.80
2022-11-13T04:35:57.497Z,14.82
2022-11-13T04:38:42.639Z,12.15
2022-11-13T04:41:50.018Z,19.60
2022-11-13T04:44:37.774Z,14.13
2022-11-13T04:47:23.592Z,16.75
2022-11-13T04:50:09.176Z,22.15
2022-11-13T04:52:54.597Z,15.25
2022-11-13T04:55:39.753Z,17.45
2022-11-13T04:58:25.203Z,22.25
2022-11-13T05:01:10.788Z,30.25
2022-11-13T05:03:55.966Z,34.65
2022-11-13T05:06:41.803Z,46.80
2022-11-13T05:09:26.954Z,44.80
2022-11-13T05:12:12.291Z,47.70
2022-11-13T05:14:57.488Z,45.45
2022-11-13T05:17:42.852Z,46.53
2022-11-13T05:20:27.995Z,58.10
2022-11-13T05:23:13.240Z,51.45
2022-11-13T05:26:10.071Z,59.15
2022-11-13T05:29:01.946Z,65.78
2022-11-13T05:34:32.343Z,54.83
2022-11-13T05:37:17.555Z,52.97
2022-11-13T05:40:03.227Z,73.10
2022-11-13T05:42:48.737Z,92.00
2022-11-13T05:45:34.032Z,56.10
2022-11-13T05:48:19.197Z,98.75
2022-11-13T05:51:10.860Z,108.90
2022-11-13T05:53:56.711Z,156.32
2022-11-13T05:56:41.830Z,167.90
2022-11-13T05:59:27.164Z,259.48
2022-11-13T06:02:12.664Z,349.33
2022-11-13T06:04:57.951Z,107.78
2022-11-13T06:07:43.196Z,148.02
2022-11-13T06:10:28.544Z,214.20
2022-11-13T06:13:13.759Z,164.18
2022-11-13T06:16:08.153Z,140.90
2022-11-13T06:18:58.408Z,82.07
2022-11-13T06:21:43.820Z,155.18
2022-11-13T06:24:29.139Z,102.22
2022-11-13T06:27:14.352Z,100.78
2022-11-13T06:29:59.544Z,105.13
2022-11-13T06:32:44.932Z,90.82
2022-11-13T06:35:30.531Z,389.70
2022-11-13T06:38:16.053Z,243.73
2022-11-13T06:41:02.102Z,115.32
2022-11-13T06:43:47.792Z,139.35
2022-11-13T06:46:33.140Z,101.35
2022-11-13T06:49:18.368Z,109.20
2022-11-13T06:52:03.793Z,123.07
2022-11-13T06:54:49.471Z,72.07
2022-11-13T06:57:34.715Z,132.90
2022-11-13T07:00:20.077Z,253.85
2022-11-13T07:03:05.254Z,367.70
2022-11-13T07:05:51.501Z,383.60
2022-11-13T07:08:36.790Z,381.88
2022-11-13T07:11:23.631Z,173.90
2022-11-13T07:14:11.531Z,122.82
2022-11-13T07:17:09.066Z,180.68
2022-11-13T07:19:55.143Z,255.98
2022-11-13T07:22:40.404Z,321.50
2022-11-13T07:25:26.710Z,330.77
2022-11-13T07:28:12.195Z,207.63
2022-11-13T07:30:58.988Z,151.25
2022-11-13T07:33:44.753Z,218.85
2022-11-13T07:36:29.977Z,178.85
2022-11-13T07:39:15.247Z,196.73
2022-11-13T07:42:00.508Z,150.30
2022-11-13T07:44:54.418Z,194.60
2022-11-13T07:47:41.374Z,133.68
2022-11-13T07:50:32.288Z,187.57
2022-11-13T07:53:18.729Z,137.70
2022-11-13T07:56:04.577Z,178.52
2022-11-13T07:58:49.959Z,158.38
2022-11-13T08:01:35.203Z,93.45
2022-11-13T08:04:20.615Z,106.93
2022-11-13T08:07:05.943Z,106.88
2022-11-13T08:09:51.225Z,60.53
2022-11-13T08:12:36.579Z,48.83
2022-11-13T08:15:21.981Z,73.38
2022-11-13T08:18:07.042Z,130.32
2022-11-13T08:20:52.229Z,216.40
2022-11-13T08:23:37.443Z,173.43
2022-11-13T08:26:23.338Z,287.75
2022-11-13T08:29:08.673Z,199.95
2022-11-13T08:31:54.122Z,88.40
2022-11-13T08:34:39.183Z,87.55
2022-11-13T08:37:24.527Z,239.68
2022-11-13T08:40:10.216Z,125.18
2022-11-13T08:43:00.201Z,162.38
2022-11-13T08:45:47.281Z,108.45
2022-11-13T08:48:32.506Z,83.57
2022-11-13T08:51:18.264Z,82.53
2022-11-13T08:54:03.619Z,92.70
2022-11-13T08:56:54.511Z,71.05
2022-11-13T08:59:41.102Z,73.05
2022-11-13T09:02:27.046Z,112.30
2022-11-13T09:05:12.616Z,131.70
2022-11-13T09:07:59.261Z,56.03
2022-11-13T09:10:44.718Z,77.57
2022-11-13T09:13:30.506Z,101.75
2022-11-13T09:16:15.939Z,42.45
2022-11-13T09:19:01.399Z,86.68
2022-11-13T09:21:47.195Z,89.70
2022-11-13T09:24:33.327Z,266.73
2022-11-13T09:27:18.709Z,75.60
2022-11-13T09:30:04.137Z,59.05
2022-11-13T09:32:53.557Z,47.63
2022-11-13T09:35:38.519Z,87.10
2022-11-13T09:38:24.135Z,129.50
2022-11-13T09:41:14.166Z,222.30
2022-11-13T09:44:04.005Z,157.60
2022-11-13T09:46:54.147Z,108.85
2022-11-13T09:50:05.113Z,194.10
2022-11-13T09:52:52.090Z,347.08
2022-11-13T09:55:45.400Z,273.25
2022-11-13T09:58:48.436Z,288.73
2022-11-13T10:01:47.805Z,209.43
2022-11-13T10:05:00.790Z,164.05
2022-11-13T10:08:04.046Z,97.97
2022-11-13T10:10:56.294Z,52.78
2022-11-13T10:13:49.475Z,205.02
2022-11-13T10:16:43.496Z,144.32
2022-11-13T10:19:55.601Z,255.40
2022-11-13T10:22:51.341Z,253.02
2022-11-13T10:25:38.725Z,160.27
2022-11-13T10:28:49.400Z,445.23
2022-11-13T10:31:45.187Z,198.93
2022-11-13T10:34:33.233Z,316.35
2022-11-13T10:37:48.494Z,184.68
2022-11-13T10:40:39.652Z,219.30
2022-11-13T10:43:26.449Z,188.07
2022-11-13T10:46:31.875Z,432.48
2022-11-13T10:49:18.940Z,175.20
2022-11-13T10:52:09.983Z,111.18
2022-11-13T10:55:15.558Z,248.15
2022-11-13T10:58:04.219Z,190.75
2022-11-13T11:00:50.281Z,237.30
2022-11-13T11:03:35.580Z,151.02
2022-11-13T11:06:20.818Z,221.68
2022-11-13T11:09:23.231Z,258.67
2022-11-13T11:12:18.918Z,172.63
2022-11-13T11:15:19.123Z,198.15
2022-11-13T11:18:15.395Z,107.55
2022-11-13T11:21:07.751Z,181.25
2022-11-13T11:24:18.077Z,306.98
2022-11-13T11:27:17.504Z,236.68
2022-11-13T11:30:12.650Z,277.08
2022-11-13T11:33:19.996Z,223.93
2022-11-13T11:36:15.780Z,369.83
2022-11-13T11:39:19.700Z,302.58
2022-11-13T11:42:05.222Z,302.08
2022-11-13T11:45:14.464Z,338.48
2022-11-13T11:48:02.029Z,215.77
2022-11-13T11:51:24.698Z,280.63
2022-11-13T11:54:13.147Z,130.07
2022-11-13T11:57:11.071Z,74.05
2022-11-13T11:59:56.263Z,52.90
2022-11-13T12:02:56.637Z,54.97
2022-11-13T12:06:07.010Z,57.58
2022-11-13T12:09:13.666Z,55.88
2022-11-13T12:12:21.897Z,53.58
2022-11-13T12:15:28.772Z,55.22
2022-11-13T12:18:36.221Z,64.57
2022-11-13T12:21:22.825Z,59.50
2022-11-13T12:24:22.941Z,66.28
2022-11-13T12:27:29.804Z,47.05
2022-11-13T12:30:19.811Z,44.53
2022-11-13T12:33:23.364Z,44.28
2022-11-13T12:36:11.377Z,57.58
2022-11-13T12:39:34.809Z,51.03
2022-11-13T12:42:45.030Z,62.65
2022-11-13T12:45:39.115Z,53.35
2022-11-13T12:48:33.896Z,47.55
2022-11-13T12:51:18.976Z,51.65
2022-11-13T12:54:04.253Z,69.32
2022-11-13T12:56:49.460Z,94.80
2022-11-13T12:59:39.277Z,59.50
2022-11-13T13:02:27.477Z,75.57
2022-11-13T13:05:30.914Z,92.38
2022-11-13T13:08:21.940Z,37.42
2022-11-13T13:11:16.147Z,52.30
2022-11-13T13:14:04.512Z,56.45
2022-11-13T13:16:49.540Z,287.58
2022-11-13T13:19:35.266Z,94.70
2022-11-13T13:25:36.145Z,34.30
2022-11-13T13:28:24.454Z,43.70
2022-11-13T13:31:16.577Z,80.55
2022-11-13T13:34:24.877Z,89.40
2022-11-13T13:37:26.559Z,68.72
2022-11-13T13:40:20.447Z,40.95
2022-11-13T13:43:20.521Z,45.38
2022-11-13T13:46:17.048Z,36.65
2022-11-13T13:49:09.450Z,56.60
2022-11-13T13:51:57.754Z,32.85
2022-11-13T13:54:45.217Z,30.35
2022-11-13T13:57:30.709Z,27.23
2022-11-13T14:00:19.078Z,26.27
2022-11-13T14:03:04.927Z,28.77
2022-11-13T14:05:50.178Z,43.35
2022-11-13T14:08:35.648Z,44.53
2022-11-13T14:11:27.256Z,30.60
2022-11-13T14:14:21.514Z,35.47
2022-11-13T14:17:10.147Z,36.38
2022-11-13T14:20:00.905Z,43.15
2022-11-13T14:22:53.269Z,26.08
2022-11-13T14:25:42.151Z,34.85
2022-11-13T14:28:31.118Z,38.60
2022-11-13T14:31:17.070Z,44.83
2022-11-13T14:34:09.599Z,48.28
2022-11-13T14:36:54.908Z,37.15
2022-11-13T14:39:40.222Z,45.60
2022-11-13T14:42:38.584Z,32.80
2022-11-13T14:45:33.959Z,35.20
2022-11-13T14:48:20.155Z,25.90
2022-11-13T14:51:19.343Z,21.67
2022-11-13T14:54:09.052Z,21.65
2022-11-13T14:56:54.529Z,18.38
2022-11-13T14:59:43.750Z,20.45
2022-11-13T15:02:28.757Z,19.73
2022-11-13T15:05:13.998Z,28.23
2022-11-13T15:07:59.362Z,23.48
2022-11-13T15:10:44.632Z,26.80
2022-11-13T15:13:30.223Z,23.77
2022-11-13T15:16:26.469Z,24.48
2022-11-13T15:19:26.724Z,20.77
2022-11-13T15:22:26.632Z,47.97
2022-11-13T15:25:15.757Z,28.05
2022-11-13T15:28:01.939Z,27.25
2022-11-13T15:30:46.888Z,23.63
2022-11-13T15:33:32.150Z,14.60
2022-11-13T15:36:17.454Z,24.67
2022-11-13T15:39:06.638Z,22.58
2022-11-13T15:41:52.848Z,19.35
2022-11-13T15:44:37.985Z,20.65
2022-11-13T15:47:29.198Z,21.88
2022-11-13T15:50:15.773Z,17.80
2022-11-13T15:53:05.459Z,24.75
2022-11-13T15:55:50.753Z,20.50
2022-11-13T15:58:36.062Z,17.55
2022-11-13T16:01:21.862Z,17.38
2022-11-13T16:04:07.530Z,14.43
2022-11-13T16:06:53.941Z,17.95
2022-11-13T16:09:39.183Z,52.60
2022-11-13T16:12:24.545Z,31.70
2022-11-13T16:15:14.216Z,18.08
2022-11-13T16:18:01.126Z,26.13
2022-11-13T16:20:47.127Z,21.65
2022-11-13T16:23:32.314Z,26.67
2022-11-13T16:26:23.573Z,16.50
2022-11-13T16:29:19.319Z,17.75
2022-11-13T16:32:04.819Z,39.28
2022-11-13T16:34:50.149Z,14.85
2022-11-13T16:37:35.488Z,26.48
2022-11-13T16:40:23.624Z,26.83
2022-11-13T16:43:10.285Z,48.28
2022-11-13T16:45:58.976Z,19.67
2022-11-13T16:48:44.621Z,19.83
2022-11-13T16:51:29.835Z,25.40
2022-11-13T16:54:15.194Z,23.77
2022-11-13T16:57:00.355Z,26.20
2022-11-13T16:59:45.692Z,22.00
2022-11-13T17:02:30.901Z,48.42
2022-11-13T17:05:17.543Z,107.20
2022-11-13T17:08:02.939Z,129.18
2022-11-13T17:10:57.545Z,64.00
2022-11-13T17:13:42.867Z,41.70
2022-11-13T17:16:30.251Z,19.98
2022-11-13T17:19:15.539Z,93.32
2022-11-13T17:22:01.155Z,22.58
2022-11-13T17:24:46.222Z,18.90
2022-11-13T17:27:31.539Z,16.42
2022-11-13T17:30:17.272Z,30.77
2022-11-13T17:33:02.394Z,16.20
2022-11-13T17:35:53.760Z,15.93
2022-11-13T17:38:39.239Z,23.70
2022-11-13T17:41:24.247Z,36.95
2022-11-13T17:44:09.568Z,16.40
2022-11-13T17:46:54.965Z,19.67
2022-11-13T17:49:40.465Z,23.98
2022-11-13T17:52:25.734Z,20.63
2022-11-13T17:55:16.402Z,40.45
2022-11-13T17:58:02.254Z,19.63
2022-11-13T18:00:48.058Z,27.58
2022-11-13T18:03:34.246Z,21.85
2022-11-13T18:06:20.423Z,29.15
2022-11-13T18:09:06.348Z,13.05
2022-11-13T18:11:51.511Z,27.15
2022-11-13T18:14:36.693Z,13.00
2022-11-13T18:17:23.016Z,16.38
2022-11-13T18:20:08.749Z,20.05
2022-11-13T18:22:54.252Z,15.80
2022-11-13T18:25:39.998Z,17.05
2022-11-13T18:28:25.254Z,18.77
2022-11-13T18:31:14.859Z,17.90
2022-11-13T18:34:04.289Z,14.27
2022-11-13T18:36:50.062Z,19.02
2022-11-13T18:39:35.055Z,14.48
2022-11-13T18:42:20.292Z,10.25
2022-11-13T18:45:06.444Z,13.02
2022-11-13T18:47:51.741Z,33.83
2022-11-13T18:50:36.978Z,13.73
2022-11-13T18:53:22.188Z,11.32
2022-11-13T18:56:11.888Z,11.90
2022-11-13T18:58:59.199Z,12.48
2022-11-13T19:01:45.461Z,19.45
2022-11-13T19:04:31.049Z,11.70
2022-11-13T19:07:16.482Z,15.60
2022-11-13T19:10:02.357Z,16.45
2022-11-13T19:12:47.553Z,15.30
2022-11-13T19:15:37.166Z,13.52
2022-11-13T19:18:22.756Z,18.95
2022-11-13T19:21:10.738Z,11.77
2022-11-13T19:23:56.829Z,15.18
2022-11-13T19:26:43.428Z,13.90
2022-11-13T19:29:28.454Z,17.98
2022-11-13T19:32:13.848Z,45.75
2022-11-13T19:34:58.949Z,56.28
2022-11-13T19:37:44.264Z,20.02
2022-11-13T19:40:29.638Z,15.63
2022-11-13T19:43:15.075Z,20.67
2022-11-13T19:46:04.938Z,37.90
2022-11-13T19:48:50.407Z,15.93
2022-11-13T19:51:36.488Z,11.95
2022-11-13T19:54:33.690Z,26.17
2022-11-13T19:57:18.863Z,12.95
2022-11-13T20:00:05.442Z,11.55
2022-11-13T20:02:50.578Z,22.10
2022-11-13T20:05:40.875Z,17.73
2022-11-13T20:08:28.157Z,10.30
2022-11-13T20:11:15.194Z,13.90
2022-11-13T20:14:00.586Z,10.63
2022-11-13T20:16:45.456Z,14.45
2022-11-13T20:19:30.819Z,12.70
2022-11-13T20:22:16.306Z,10.68
2022-11-13T20:25:02.530Z,10.60
2022-11-13T20:27:47.870Z,10.85
2022-11-13T20:30:33.054Z,10.88
2022-11-13T20:33:22.351Z,17.95
2022-11-13T20:36:08.502Z,23.02
2022-11-13T20:38:55.993Z,105.40
2022-11-13T20:41:41.193Z,48.67
2022-11-13T20:44:26.679Z,175.60
2022-11-13T20:47:11.700Z,127.43
2022-11-13T20:49:57.075Z,323.75
2022-11-13T20:52:42.292Z,53.63
2022-11-13T20:55:27.548Z,55.05
2022-11-13T20:58:12.900Z,76.38
2022-11-13T21:01:09.895Z,141.05
2022-11-13T21:04:02.293Z,24.27
2022-11-13T21:06:47.598Z,14.93
2022-11-13T21:09:32.831Z,14.73
2022-11-13T21:12:18.916Z,13.82
2022-11-13T21:15:04.686Z,20.92
2022-11-13T21:17:49.941Z,14.98
2022-11-13T21:20:36.470Z,20.73
2022-11-13T21:23:21.624Z,23.98
2022-11-13T21:26:08.499Z,26.35
2022-11-13T21:28:57.704Z,20.20
2022-11-13T21:31:42.730Z,24.63
2022-11-13T21:34:28.143Z,21.15
2022-11-13T21:37:14.633Z,21.40
2022-11-13T21:39:59.794Z,23.95
2022-11-13T21:42:45.406Z,20.50
2022-11-13T21:45:33.234Z,19.65
2022-11-13T21:48:18.284Z,23.30
2022-11-13T21:51:03.789Z,19.63
2022-11-13T21:53:49.017Z,21.02
2022-11-13T21:56:36.533Z,24.20
2022-11-13T21:59:21.703Z,15.55
2022-11-13T22:02:10.962Z,13.77
2022-11-13T22:04:56.589Z,15.52
2022-11-13T22:07:41.865Z,24.65
2022-11-13T22:10:27.143Z,16.75
2022-11-13T22:13:12.496Z,15.20
2022-11-13T22:15:58.192Z,15.55
2022-11-13T22:18:43.920Z,18.25
2022-11-13T22:21:31.930Z,17.60
2022-11-13T22:24:17.144Z,18.10
2022-11-13T22:27:02.459Z,14.93
2022-11-13T22:29:47.713Z,14.27
2022-11-13T22:32:32.966Z,26.80
2022-11-13T22:35:18.225Z,24.20
2022-11-13T22:38:03.459Z,19.67
2022-11-13T22:40:48.997Z,17.98
2022-11-13T22:43:37.797Z,22.40
2022-11-13T22:46:25.636Z,25.85
2022-11-13T22:49:11.956Z,19.15
2022-11-13T22:51:56.927Z,24.30
2022-11-13T22:54:42.213Z,22.13
2022-11-13T22:57:27.686Z,24.38
2022-11-13T23:00:16.949Z,24.00
2022-11-13T23:03:02.680Z,25.35
2022-11-13T23:06:01.003Z,25.05
2022-11-13T23:08:47.171Z,29.90
2022-11-13T23:11:39.949Z,37.47
2022-11-13T23:14:25.760Z,36.35
2022-11-13T23:17:11.204Z,28.95
2022-11-13T23:19:56.763Z,36.38
2022-11-13T23:22:44.755Z,29.88
2022-11-13T23:25:32.731Z,31.25
2022-11-13T23:28:17.698Z,45.65
2022-11-13T23:31:04.149Z,32.35
2022-11-13T23:33:49.719Z,35.47
2022-11-13T23:36:36.151Z,35.72
2022-11-13T23:39:21.519Z,34.53
2022-11-13T23:42:08.306Z,33.25
2022-11-13T23:44:54.298Z,35.65
2022-11-13T23:47:40.495Z,34.42
2022-11-13T23:50:26.983Z,36.67
2022-11-13T23:53:15.999Z,28.95
2022-11-13T23:56:06.329Z,43.17
2022-11-13T23:58:53.230Z,32.83
